createdAt,value
2022-09-04T00:01:54.179Z,14.19
2022-09-04T00:05:17.275Z,14.21
2022-09-04T00:08:35.147Z,14.26
2022-09-04T00:12:05.715Z,14.29
2022-09-04T00:15:03.843Z,14.32
2022-09-04T00:18:05.779Z,14.36
2022-09-04T00:21:26.044Z,14.39
2022-09-04T00:24:18.691Z,14.44
2022-09-04T00:27:10.970Z,14.48
2022-09-04T00:30:03.373Z,14.53
2022-09-04T00:33:01.681Z,14.54
2022-09-04T00:35:56.220Z,14.54
2022-09-04T00:38:58.599Z,14.54
2022-09-04T00:42:07.414Z,14.52
2022-09-04T00:45:16.285Z,14.51
2022-09-04T00:48:18.620Z,14.49
2022-09-04T00:51:48.901Z,14.46
2022-09-04T00:54:52.817Z,14.43
2022-09-04T00:57:49.896Z,14.41
2022-09-04T01:00:37.088Z,14.40
2022-09-04T01:03:30.730Z,14.41
2022-09-04T01:06:41.398Z,14.41
2022-09-04T01:09:44.208Z,14.41
2022-09-04T01:12:34.059Z,14.39
2022-09-04T01:15:58.455Z,14.38
2022-09-04T01:19:05.243Z,14.36
2022-09-04T01:22:12.340Z,14.36
2022-09-04T01:25:36.193Z,14.38
2022-09-04T01:28:55.452Z,14.45
2022-09-04T01:31:55.577Z,14.51
2022-09-04T01:35:00.975Z,14.57
2022-09-04T01:38:25.687Z,14.63
2022-09-04T01:41:03.555Z,14.67
2022-09-04T01:43:33.200Z,14.69
2022-09-04T01:49:57.388Z,14.72
2022-09-04T01:52:30.203Z,14.74
2022-09-04T01:55:25.695Z,14.76
2022-09-04T01:58:30.272Z,14.75
2022-09-04T02:01:38.592Z,14.76
2022-09-04T02:04:28.746Z,14.74
2022-09-04T02:07:24.455Z,14.75
2022-09-04T02:10:25.782Z,14.73
2022-09-04T02:13:22.522Z,14.73
2022-09-04T02:16:26.812Z,14.71
2022-09-04T02:19:55.746Z,14.70
2022-09-04T02:23:03.659Z,14.68
2022-09-04T02:26:11.379Z,14.67
2022-09-04T02:29:23.629Z,14.67
2022-09-04T02:32:18.799Z,14.66
2022-09-04T02:35:32.837Z,14.67
2022-09-04T02:38:38.323Z,14.67
2022-09-04T02:41:37.383Z,14.66
2022-09-04T02:44:45.139Z,14.65
2022-09-04T02:47:53.758Z,14.63
2022-09-04T02:51:14.085Z,14.63
2022-09-04T02:54:28.190Z,14.61
2022-09-04T02:57:44.026Z,14.59
2022-09-04T06:04:23.237Z,11.78
2022-09-04T06:07:23.767Z,11.75
2022-09-04T06:09:59.964Z,11.73
2022-09-04T06:12:47.939Z,11.76
2022-09-04T06:15:58.258Z,11.72
2022-09-04T06:22:50.151Z,11.69
2022-09-04T06:25:48.410Z,11.65
2022-09-04T06:28:50.524Z,11.67
2022-09-04T06:31:20.142Z,11.65
2022-09-04T06:34:34.322Z,11.69
2022-09-04T06:37:36.682Z,11.74
2022-09-04T06:40:11.174Z,11.76
2022-09-04T06:42:48.000Z,11.80
2022-09-04T06:45:17.728Z,11.82
2022-09-04T06:47:47.521Z,11.86
2022-09-04T06:50:59.362Z,11.91
2022-09-04T06:54:11.779Z,11.94
2022-09-04T06:56:56.595Z,11.96
2022-09-04T07:03:42.695Z,12.06
2022-09-04T07:10:43.636Z,12.14
2022-09-04T07:13:31.844Z,12.20
2022-09-04T07:21:22.962Z,12.32
2022-09-04T07:28:33.751Z,12.42
2022-09-04T07:31:29.444Z,12.46
2022-09-04T07:34:46.965Z,12.52
2022-09-04T07:37:58.867Z,12.55
2022-09-04T07:40:50.981Z,12.60
2022-09-04T07:51:10.722Z,12.74
2022-09-04T07:54:25.135Z,12.80
2022-09-04T07:57:39.585Z,12.83
2022-09-04T08:01:04.156Z,12.90
2022-09-04T08:03:53.742Z,12.96
2022-09-04T08:12:16.894Z,13.17
2022-09-04T08:15:15.873Z,13.29
2022-09-04T08:18:01.812Z,13.41
2022-09-04T08:21:06.415Z,13.51
2022-09-04T08:24:08.464Z,13.58
2022-09-04T08:27:10.011Z,13.70
2022-09-04T08:30:07.939Z,13.96
2022-09-04T08:32:53.395Z,14.14
2022-09-04T08:39:30.328Z,14.66
2022-09-04T08:42:44.820Z,15.03
2022-09-04T08:45:55.390Z,15.43
2022-09-04T08:53:15.087Z,16.66
2022-09-04T08:56:18.687Z,17.74
2022-09-04T08:59:39.996Z,18.53
2022-09-04T09:02:45.660Z,19.90
2022-09-04T09:05:43.586Z,21.07
2022-09-04T09:08:51.865Z,21.80
2022-09-04T09:12:27.173Z,22.49
2022-09-04T09:15:46.744Z,23.29
2022-09-04T09:19:07.125Z,23.63
2022-09-04T09:22:28.231Z,23.71
2022-09-04T09:25:22.017Z,23.03
2022-09-04T09:29:06.282Z,21.41
2022-09-04T09:36:27.837Z,20.41
2022-09-04T09:39:46.810Z,19.95
2022-09-04T09:47:04.909Z,20.17
2022-09-04T09:57:01.947Z,21.93
2022-09-04T09:59:55.908Z,22.72
2022-09-04T10:02:31.633Z,22.95
2022-09-04T10:05:19.535Z,22.97
2022-09-04T10:08:35.605Z,23.32
2022-09-04T10:11:41.678Z,23.72
2022-09-04T10:15:04.248Z,23.98
2022-09-04T10:18:13.767Z,24.02
2022-09-04T10:21:13.062Z,23.28
2022-09-04T10:24:24.473Z,22.60
2022-09-04T10:27:14.418Z,21.26
2022-09-04T10:30:07.552Z,20.17
2022-09-04T10:33:21.587Z,19.24
2022-09-04T10:36:31.887Z,18.82
2022-09-04T10:40:04.404Z,18.72
2022-09-04T10:43:26.519Z,18.46
2022-09-04T10:46:26.498Z,19.56
2022-09-04T10:49:19.266Z,20.66
2022-09-04T10:52:24.659Z,21.24
2022-09-04T10:55:56.584Z,21.26
2022-09-04T10:59:13.419Z,20.63
2022-09-04T11:02:15.779Z,20.08
2022-09-04T11:05:26.793Z,19.73
2022-09-04T11:08:36.545Z,19.69
2022-09-04T11:11:45.155Z,19.68
2022-09-04T11:14:59.824Z,19.62
2022-09-04T11:18:24.609Z,19.58
2022-09-04T11:21:43.147Z,19.42
2022-09-04T11:24:42.225Z,19.12
2022-09-04T11:28:06.954Z,18.83
2022-09-04T11:31:13.443Z,18.62
2022-09-04T11:34:14.016Z,18.60
2022-09-04T11:36:59.065Z,18.64
2022-09-04T11:40:10.541Z,18.63
2022-09-04T11:47:23.449Z,18.85
2022-09-04T11:50:47.716Z,18.82
2022-09-04T11:54:20.566Z,18.70
2022-09-04T11:57:13.901Z,18.54
2022-09-04T12:00:07.704Z,18.53
2022-09-04T12:03:27.961Z,18.55
2022-09-04T12:06:44.303Z,18.48
2022-09-04T12:10:01.309Z,18.42
2022-09-04T12:41:50.632Z,18.99
2022-09-04T12:44:59.983Z,19.14
2022-09-04T12:47:54.402Z,19.08
2022-09-04T12:51:10.047Z,19.16
2022-09-04T12:53:57.582Z,19.27
2022-09-04T12:57:08.973Z,19.36
2022-09-04T13:00:15.508Z,19.43
2022-09-04T13:03:29.493Z,19.61
2022-09-04T13:06:27.388Z,19.52
2022-09-04T13:09:05.983Z,19.41
2022-09-04T13:11:50.661Z,19.68
2022-09-04T13:14:27.042Z,19.92
2022-09-04T13:17:18.962Z,20.02
2022-09-04T13:19:48.537Z,20.02
2022-09-04T13:22:33.706Z,20.11
2022-09-04T13:25:56.126Z,20.20
2022-09-04T13:28:41.132Z,20.32
2022-09-04T13:31:19.733Z,20.38
2022-09-04T13:33:56.075Z,20.49
2022-09-04T13:36:23.806Z,20.59
2022-09-04T13:39:04.986Z,20.77
2022-09-04T13:42:10.902Z,20.73
2022-09-04T13:44:41.076Z,20.68
2022-09-04T13:51:20.240Z,20.13
2022-09-04T13:54:18.460Z,19.90
2022-09-04T14:01:23.981Z,20.35
2022-09-04T14:04:16.924Z,20.50
2022-09-04T14:07:14.701Z,20.64
2022-09-04T14:10:09.105Z,20.77
2022-09-04T17:40:39.279Z,20.21
2022-09-04T17:40:57.003Z,20.25
2022-09-04T17:44:07.067Z,20.22
2022-09-04T17:50:58.427Z,19.77
2022-09-04T17:53:38.713Z,19.72
2022-09-04T17:56:18.617Z,19.57
2022-09-04T18:02:49.831Z,19.43
2022-09-04T18:10:01.062Z,19.23
2022-09-04T18:13:36.484Z,19.06
2022-09-04T18:20:28.179Z,18.87
2022-09-04T18:23:07.316Z,18.75
2022-09-04T18:25:55.180Z,18.65
2022-09-04T18:28:33.875Z,18.59
2022-09-04T18:37:05.990Z,18.56
2022-09-04T18:37:17.798Z,18.50
2022-09-04T18:37:46.158Z,18.43
2022-09-04T18:47:08.439Z,18.36
2022-09-04T18:50:24.013Z,18.25
2022-09-04T18:51:33.401Z,18.07
2022-09-04T18:54:29.779Z,17.99
2022-09-04T18:57:48.687Z,17.97
2022-09-04T19:00:46.766Z,17.91
2022-09-04T19:04:19.470Z,17.90
2022-09-04T19:07:27.654Z,17.83
2022-09-04T19:10:32.732Z,17.81
2022-09-04T19:13:28.961Z,17.79
2022-09-04T19:16:37.584Z,17.80
2022-09-04T19:19:26.779Z,17.82
2022-09-04T19:22:28.472Z,17.88
2022-09-04T19:25:20.846Z,17.90
2022-09-04T19:28:17.069Z,17.90
2022-09-04T19:31:29.998Z,17.87
2022-09-04T19:34:48.645Z,17.84
2022-09-04T19:43:45.321Z,17.77
2022-09-04T19:46:11.289Z,17.76
2022-09-04T19:48:27.737Z,17.73
2022-09-04T19:53:22.584Z,17.72
2022-09-04T19:54:59.843Z,17.76
2022-09-04T19:58:15.283Z,17.80
2022-09-04T20:01:07.263Z,17.80
2022-09-04T20:04:04.119Z,17.79
2022-09-04T20:07:01.528Z,17.78
2022-09-04T20:14:13.823Z,17.73
2022-09-04T20:17:31.094Z,17.75
2022-09-04T20:20:23.316Z,17.77
2022-09-04T20:23:33.833Z,17.74
2022-09-04T20:26:28.531Z,17.72
2022-09-04T20:29:22.449Z,17.70
2022-09-04T20:32:26.888Z,17.66
2022-09-04T20:35:22.329Z,17.58
2022-09-04T20:38:30.695Z,17.55
2022-09-04T20:42:10.007Z,17.54
2022-09-04T20:47:23.065Z,17.53
2022-09-04T20:52:58.763Z,17.48
2022-09-04T20:55:36.581Z,17.46
2022-09-04T21:03:13.511Z,17.46
2022-09-04T21:05:50.673Z,17.36
2022-09-04T21:08:38.070Z,17.31
2022-09-04T21:11:40.787Z,17.33
2022-09-04T21:14:09.816Z,17.33
2022-09-04T21:16:45.839Z,17.29
2022-09-04T21:19:33.110Z,17.27
2022-09-04T21:22:38.643Z,17.29
2022-09-04T21:25:18.643Z,17.29
2022-09-04T21:28:03.690Z,17.30
2022-09-04T21:31:01.154Z,17.32
2022-09-04T21:34:01.293Z,17.31
2022-09-04T21:36:39.207Z,17.30
2022-09-04T21:39:17.859Z,17.26
2022-09-04T21:42:16.522Z,17.25
2022-09-04T21:45:00.100Z,17.25
2022-09-04T21:47:30.477Z,17.27
2022-09-04T21:58:04.935Z,17.31
2022-09-04T22:02:37.797Z,17.36
2022-09-04T22:02:42.415Z,17.33
2022-09-04T22:05:18.515Z,17.32
2022-09-04T22:12:58.735Z,17.26
2022-09-04T22:19:46.713Z,17.15
2022-09-04T22:27:08.279Z,17.11
2022-09-04T22:30:03.867Z,17.07
2022-09-04T22:33:03.391Z,17.03
2022-09-04T22:36:18.372Z,17.03
2022-09-04T22:39:12.334Z,17.02
2022-09-04T22:49:25.711Z,17.01
2022-09-04T22:52:23.840Z,17.01
2022-09-04T22:55:29.388Z,17.02
2022-09-04T22:58:31.212Z,17.02
2022-09-04T23:01:28.969Z,17.02
2022-09-04T23:04:30.971Z,17.00
2022-09-04T23:11:46.674Z,17.00
2022-09-04T23:13:51.500Z,16.98
2022-09-04T23:14:00.386Z,16.98
2022-09-04T23:16:15.014Z,16.98
2022-09-04T23:24:02.578Z,16.96
2022-09-04T23:26:35.820Z,16.92
2022-09-04T23:26:45.163Z,16.88
2022-09-04T23:30:04.295Z,16.85
2022-09-04T23:33:16.149Z,16.86
2022-09-04T23:37:02.085Z,16.81
2022-09-04T23:40:15.053Z,16.78
2022-09-04T23:43:36.231Z,16.72
2022-09-04T23:46:32.251Z,16.70
2022-09-04T23:49:46.552Z,16.70
2022-09-04T23:52:49.614Z,16.70
2022-09-04T23:56:01.000Z,16.72
2022-09-04T23:59:22.618Z,16.72
